Fairchilds, Texas
Current Conditions -  °F | °C
As of 11:53 AM on Friday 28 Nov 2014 (Local Time) from KSGR Reporting Station
Broken Clouds Broken Clouds  
Wind Chill: 70°   Ceiling: 5000
Heat Index: 70°   Visibility: 10mi
Dew Point: 55°   Wind: 12mph
Humidity: 59%   Direction: 170°S
Pressure: 30.27"   Gusts: NA
Location:  29.3854°N, 95.8138°W
Report Text: KSGR 281753Z 17010KT 10SM SCT043 BKN050 21/13 A3027 RMK AO2 SLP253 T02110128 10217 20072 58024
Loading
Personal Weather Stations






























Interactive Weather Map New forecast layout! Learn more

10-Day Weather Forecast

Advertisements
Track Severe Weather on mobile